sensor_id;sensor_type;location;lat;lon;timestamp;temperature;humidity
4749;DHT22;2388;53.582;9.962;2022-12-07T00:01:29;3.80;99.90
4749;DHT22;2388;53.582;9.962;2022-12-07T00:03:57;3.80;99.90
4749;DHT22;2388;53.582;9.962;2022-12-07T00:06:26;3.90;99.90
4749;DHT22;2388;53.582;9.962;2022-12-07T00:08:51;3.90;99.90
4749;DHT22;2388;53.582;9.962;2022-12-07T00:11:20;3.90;99.90
4749;DHT22;2388;53.582;9.962;2022-12-07T00:13:47;4.00;99.90
4749;DHT22;2388;53.582;9.962;2022-12-07T00:16:15;4.00;99.90
4749;DHT22;2388;53.582;9.962;2022-12-07T00:18:41;4.00;99.90
4749;DHT22;2388;53.582;9.962;2022-12-07T00:21:16;4.00;99.90
4749;DHT22;2388;53.582;9.962;2022-12-07T00:23:43;4.00;99.90
4749;DHT22;2388;53.582;9.962;2022-12-07T00:26:16;4.00;99.90
4749;DHT22;2388;53.582;9.962;2022-12-07T00:28:46;4.00;99.90
4749;DHT22;2388;53.582;9.962;2022-12-07T00:31:12;4.00;99.90
4749;DHT22;2388;53.582;9.962;2022-12-07T00:33:38;4.00;99.90
4749;DHT22;2388;53.582;9.962;2022-12-07T00:36:10;4.00;99.90
4749;DHT22;2388;53.582;9.962;2022-12-07T00:38:38;4.00;99.90
4749;DHT22;2388;53.582;9.962;2022-12-07T00:41:16;4.00;99.90
4749;DHT22;2388;53.582;9.962;2022-12-07T00:43:43;4.00;99.90
4749;DHT22;2388;53.582;9.962;2022-12-07T00:46:09;4.00;99.90
4749;DHT22;2388;53.582;9.962;2022-12-07T00:48:35;4.00;99.90
4749;DHT22;2388;53.582;9.962;2022-12-07T00:51:01;4.00;99.90
4749;DHT22;2388;53.582;9.962;2022-12-07T00:53:27;4.00;99.90
4749;DHT22;2388;53.582;9.962;2022-12-07T00:55:53;4.00;99.90
4749;DHT22;2388;53.582;9.962;2022-12-07T00:58:19;4.00;99.90
4749;DHT22;2388;53.582;9.962;2022-12-07T01:00:45;4.00;99.90
4749;DHT22;2388;53.582;9.962;2022-12-07T01:03:12;4.10;99.90
4749;DHT22;2388;53.582;9.962;2022-12-07T01:05:38;4.00;99.90
4749;DHT22;2388;53.582;9.962;2022-12-07T01:08:04;4.00;99.90
4749;DHT22;2388;53.582;9.962;2022-12-07T01:10:30;4.00;99.90
4749;DHT22;2388;53.582;9.962;2022-12-07T01:12:57;4.00;99.90
4749;DHT22;2388;53.582;9.962;2022-12-07T01:15:22;4.00;99.90
4749;DHT22;2388;53.582;9.962;2022-12-07T01:17:57;4.00;99.90
4749;DHT22;2388;53.582;9.962;2022-12-07T01:20:23;4.00;99.90
4749;DHT22;2388;53.582;9.962;2022-12-07T01:22:48;4.00;99.90
4749;DHT22;2388;53.582;9.962;2022-12-07T01:25:14;3.90;99.90
4749;DHT22;2388;53.582;9.962;2022-12-07T01:27:40;3.90;99.90
4749;DHT22;2388;53.582;9.962;2022-12-07T01:30:06;3.90;99.90
4749;DHT22;2388;53.582;9.962;2022-12-07T01:32:33;3.90;99.90
4749;DHT22;2388;53.582;9.962;2022-12-07T01:34:58;3.90;99.90
4749;DHT22;2388;53.582;9.962;2022-12-07T01:37:24;3.90;99.90
4749;DHT22;2388;53.582;9.962;2022-12-07T01:39:50;3.90;99.90
4749;DHT22;2388;53.582;9.962;2022-12-07T01:42:16;3.90;99.90
4749;DHT22;2388;53.582;9.962;2022-12-07T01:47:54;3.90;99.90
4749;DHT22;2388;53.582;9.962;2022-12-07T01:50:21;3.90;99.90
4749;DHT22;2388;53.582;9.962;2022-12-07T01:52:51;3.90;99.90
4749;DHT22;2388;53.582;9.962;2022-12-07T01:55:19;3.90;99.90
4749;DHT22;2388;53.582;9.962;2022-12-07T01:57:48;3.90;99.90
4749;DHT22;2388;53.582;9.962;2022-12-07T02:00:15;3.90;99.90
4749;DHT22;2388;53.582;9.962;2022-12-07T02:02:48;4.00;99.90
4749;DHT22;2388;53.582;9.962;2022-12-07T02:05:17;4.00;99.90
4749;DHT22;2388;53.582;9.962;2022-12-07T02:07:43;4.00;99.90
4749;DHT22;2388;53.582;9.962;2022-12-07T02:10:31;4.00;99.90
4749;DHT22;2388;53.582;9.962;2022-12-07T02:13:23;4.00;99.90
4749;DHT22;2388;53.582;9.962;2022-12-07T02:21:34;4.00;99.90
4749;DHT22;2388;53.582;9.962;2022-12-07T02:30:10;4.10;99.90
4749;DHT22;2388;53.582;9.962;2022-12-07T02:40:50;4.10;99.90
4749;DHT22;2388;53.582;9.962;2022-12-07T02:43:21;4.10;99.90
4749;DHT22;2388;53.582;9.962;2022-12-07T02:45:50;4.10;99.90
4749;DHT22;2388;53.582;9.962;2022-12-07T02:48:17;4.10;99.90
4749;DHT22;2388;53.582;9.962;2022-12-07T02:50:51;4.10;99.90
4749;DHT22;2388;53.582;9.962;2022-12-07T02:53:37;4.10;99.90
4749;DHT22;2388;53.582;9.962;2022-12-07T03:03:48;4.00;99.90
4749;DHT22;2388;53.582;9.962;2022-12-07T03:06:28;4.00;99.90
4749;DHT22;2388;53.582;9.962;2022-12-07T03:09:14;4.20;99.90
4749;DHT22;2388;53.582;9.962;2022-12-07T03:11:48;4.00;99.90
4749;DHT22;2388;53.582;9.962;2022-12-07T03:14:29;4.00;99.90
4749;DHT22;2388;53.582;9.962;2022-12-07T03:17:04;4.00;99.90
4749;DHT22;2388;53.582;9.962;2022-12-07T03:19:34;4.00;99.90
4749;DHT22;2388;53.582;9.962;2022-12-07T03:22:03;4.00;99.90
4749;DHT22;2388;53.582;9.962;2022-12-07T03:24:42;4.00;99.90
4749;DHT22;2388;53.582;9.962;2022-12-07T03:27:15;4.00;99.90
4749;DHT22;2388;53.582;9.962;2022-12-07T03:30:09;4.00;99.90
4749;DHT22;2388;53.582;9.962;2022-12-07T03:32:48;4.00;99.90
4749;DHT22;2388;53.582;9.962;2022-12-07T03:35:21;3.90;99.90
4749;DHT22;2388;53.582;9.962;2022-12-07T03:37:59;3.90;99.90
4749;DHT22;2388;53.582;9.962;2022-12-07T03:40:39;3.90;99.90
4749;DHT22;2388;53.582;9.962;2022-12-07T03:43:06;3.90;99.90
4749;DHT22;2388;53.582;9.962;2022-12-07T03:45:38;3.90;99.90
4749;DHT22;2388;53.582;9.962;2022-12-07T03:48:15;3.90;99.90
4749;DHT22;2388;53.582;9.962;2022-12-07T03:50:51;3.90;99.90
4749;DHT22;2388;53.582;9.962;2022-12-07T03:53:35;3.90;99.90
4749;DHT22;2388;53.582;9.962;2022-12-07T03:56:02;3.90;99.90
4749;DHT22;2388;53.582;9.962;2022-12-07T03:58:30;3.80;99.90
4749;DHT22;2388;53.582;9.962;2022-12-07T04:00:56;3.90;99.90
4749;DHT22;2388;53.582;9.962;2022-12-07T04:03:22;3.80;99.90
4749;DHT22;2388;53.582;9.962;2022-12-07T04:05:47;3.80;99.90
4749;DHT22;2388;53.582;9.962;2022-12-07T04:08:13;3.80;99.90
4749;DHT22;2388;53.582;9.962;2022-12-07T04:10:38;3.80;99.90
4749;DHT22;2388;53.582;9.962;2022-12-07T04:13:04;3.80;99.90
4749;DHT22;2388;53.582;9.962;2022-12-07T04:15:30;3.70;99.90
4749;DHT22;2388;53.582;9.962;2022-12-07T04:17:55;3.70;99.90
4749;DHT22;2388;53.582;9.962;2022-12-07T04:20:21;3.70;99.90
4749;DHT22;2388;53.582;9.962;2022-12-07T04:22:46;3.70;99.90
4749;DHT22;2388;53.582;9.962;2022-12-07T04:25:12;3.70;99.90
4749;DHT22;2388;53.582;9.962;2022-12-07T04:27:38;3.70;99.90
4749;DHT22;2388;53.582;9.962;2022-12-07T04:30:04;3.70;99.90
4749;DHT22;2388;53.582;9.962;2022-12-07T04:32:30;3.60;99.90
4749;DHT22;2388;53.582;9.962;2022-12-07T04:34:56;3.60;99.90
4749;DHT22;2388;53.582;9.962;2022-12-07T04:37:21;3.60;99.90
4749;DHT22;2388;53.582;9.962;2022-12-07T04:39:47;3.60;99.90
4749;DHT22;2388;53.582;9.962;2022-12-07T04:42:12;3.60;99.90
4749;DHT22;2388;53.582;9.962;2022-12-07T04:44:39;3.60;99.90
4749;DHT22;2388;53.582;9.962;2022-12-07T04:47:04;3.60;99.90
4749;DHT22;2388;53.582;9.962;2022-12-07T04:49:30;3.60;99.90
4749;DHT22;2388;53.582;9.962;2022-12-07T04:51:55;3.50;99.90
4749;DHT22;2388;53.582;9.962;2022-12-07T04:54:21;3.50;99.90
4749;DHT22;2388;53.582;9.962;2022-12-07T04:56:46;3.60;99.90
4749;DHT22;2388;53.582;9.962;2022-12-07T04:59:13;3.60;99.90
4749;DHT22;2388;53.582;9.962;2022-12-07T05:01:39;3.50;99.90
4749;DHT22;2388;53.582;9.962;2022-12-07T05:04:05;3.50;99.90
4749;DHT22;2388;53.582;9.962;2022-12-07T05:06:30;3.50;99.90
4749;DHT22;2388;53.582;9.962;2022-12-07T05:08:56;3.60;99.90
4749;DHT22;2388;53.582;9.962;2022-12-07T05:11:22;3.60;99.90
4749;DHT22;2388;53.582;9.962;2022-12-07T05:14:16;3.60;99.90
4749;DHT22;2388;53.582;9.962;2022-12-07T05:16:43;3.50;99.90
4749;DHT22;2388;53.582;9.962;2022-12-07T05:19:09;3.50;99.90
4749;DHT22;2388;53.582;9.962;2022-12-07T05:21:35;3.50;99.90
4749;DHT22;2388;53.582;9.962;2022-12-07T05:24:01;3.60;99.90
4749;DHT22;2388;53.582;9.962;2022-12-07T05:26:26;3.50;99.90
4749;DHT22;2388;53.582;9.962;2022-12-07T05:28:54;3.50;99.90
4749;DHT22;2388;53.582;9.962;2022-12-07T05:31:20;3.50;99.90
4749;DHT22;2388;53.582;9.962;2022-12-07T05:33:46;3.50;99.90
4749;DHT22;2388;53.582;9.962;2022-12-07T05:36:12;3.50;99.90
4749;DHT22;2388;53.582;9.962;2022-12-07T05:38:37;3.50;99.90
4749;DHT22;2388;53.582;9.962;2022-12-07T05:41:05;3.50;99.90
4749;DHT22;2388;53.582;9.962;2022-12-07T05:43:31;3.50;99.90
4749;DHT22;2388;53.582;9.962;2022-12-07T05:45:57;3.50;99.90
4749;DHT22;2388;53.582;9.962;2022-12-07T05:48:22;3.50;99.90
4749;DHT22;2388;53.582;9.962;2022-12-07T05:50:49;3.40;99.90
4749;DHT22;2388;53.582;9.962;2022-12-07T05:53:15;3.50;99.90
4749;DHT22;2388;53.582;9.962;2022-12-07T05:55:40;3.40;99.90
4749;DHT22;2388;53.582;9.962;2022-12-07T05:58:06;3.30;99.90
4749;DHT22;2388;53.582;9.962;2022-12-07T06:00:50;3.30;99.90
4749;DHT22;2388;53.582;9.962;2022-12-07T06:03:15;3.40;99.90
4749;DHT22;2388;53.582;9.962;2022-12-07T06:05:41;3.40;99.90
4749;DHT22;2388;53.582;9.962;2022-12-07T06:08:07;3.40;99.90
4749;DHT22;2388;53.582;9.962;2022-12-07T06:10:32;3.40;99.90
4749;DHT22;2388;53.582;9.962;2022-12-07T06:12:58;3.40;99.90
4749;DHT22;2388;53.582;9.962;2022-12-07T06:15:23;3.30;99.90
4749;DHT22;2388;53.582;9.962;2022-12-07T06:17:49;3.40;99.90
4749;DHT22;2388;53.582;9.962;2022-12-07T06:20:14;3.40;99.90
4749;DHT22;2388;53.582;9.962;2022-12-07T06:22:40;3.30;99.90
4749;DHT22;2388;53.582;9.962;2022-12-07T06:25:06;3.40;99.90
4749;DHT22;2388;53.582;9.962;2022-12-07T06:27:32;3.40;99.90
4749;DHT22;2388;53.582;9.962;2022-12-07T06:29:58;3.40;99.90
4749;DHT22;2388;53.582;9.962;2022-12-07T06:32:24;3.30;99.90
4749;DHT22;2388;53.582;9.962;2022-12-07T06:34:49;3.30;99.90
4749;DHT22;2388;53.582;9.962;2022-12-07T06:37:15;3.30;99.90
4749;DHT22;2388;53.582;9.962;2022-12-07T06:39:40;3.20;99.90
4749;DHT22;2388;53.582;9.962;2022-12-07T06:42:06;3.20;99.90
4749;DHT22;2388;53.582;9.962;2022-12-07T06:44:31;3.40;99.90
4749;DHT22;2388;53.582;9.962;2022-12-07T06:46:57;3.70;99.90
4749;DHT22;2388;53.582;9.962;2022-12-07T06:49:22;3.80;99.90
4749;DHT22;2388;53.582;9.962;2022-12-07T06:51:48;3.90;99.90
4749;DHT22;2388;53.582;9.962;2022-12-07T06:54:15;3.90;99.90
4749;DHT22;2388;53.582;9.962;2022-12-07T06:56:40;3.70;99.90
4749;DHT22;2388;53.582;9.962;2022-12-07T06:59:07;3.60;99.90
4749;DHT22;2388;53.582;9.962;2022-12-07T07:01:34;3.50;99.90
4749;DHT22;2388;53.582;9.962;2022-12-07T07:04:00;3.50;99.90
4749;DHT22;2388;53.582;9.962;2022-12-07T07:06:26;3.40;99.90
4749;DHT22;2388;53.582;9.962;2022-12-07T07:08:52;3.30;99.90
4749;DHT22;2388;53.582;9.962;2022-12-07T07:11:17;3.20;99.90
4749;DHT22;2388;53.582;9.962;2022-12-07T07:13:43;3.50;99.90
4749;DHT22;2388;53.582;9.962;2022-12-07T07:16:09;3.50;99.90
4749;DHT22;2388;53.582;9.962;2022-12-07T07:18:35;3.40;99.90
4749;DHT22;2388;53.582;9.962;2022-12-07T07:21:01;3.30;99.90
4749;DHT22;2388;53.582;9.962;2022-12-07T07:23:27;3.20;99.90
4749;DHT22;2388;53.582;9.962;2022-12-07T07:25:52;3.10;99.90
4749;DHT22;2388;53.582;9.962;2022-12-07T07:28:18;3.10;99.90
4749;DHT22;2388;53.582;9.962;2022-12-07T07:30:43;3.10;99.90
4749;DHT22;2388;53.582;9.962;2022-12-07T07:33:10;3.00;99.90
4749;DHT22;2388;53.582;9.962;2022-12-07T07:35:35;3.00;99.90
4749;DHT22;2388;53.582;9.962;2022-12-07T07:38:01;3.10;99.90
4749;DHT22;2388;53.582;9.962;2022-12-07T07:40:27;3.20;99.90
4749;DHT22;2388;53.582;9.962;2022-12-07T07:42:56;3.10;99.90
4749;DHT22;2388;53.582;9.962;2022-12-07T07:45:23;3.10;99.90
4749;DHT22;2388;53.582;9.962;2022-12-07T07:47:50;3.10;99.90
4749;DHT22;2388;53.582;9.962;2022-12-07T07:50:16;3.10;99.90
4749;DHT22;2388;53.582;9.962;2022-12-07T07:52:42;3.20;99.90
4749;DHT22;2388;53.582;9.962;2022-12-07T07:55:08;3.20;99.90
4749;DHT22;2388;53.582;9.962;2022-12-07T07:57:35;3.20;99.90
4749;DHT22;2388;53.582;9.962;2022-12-07T08:00:02;3.30;99.90
4749;DHT22;2388;53.582;9.962;2022-12-07T08:02:28;3.30;99.90
4749;DHT22;2388;53.582;9.962;2022-12-07T08:04:55;3.40;99.90
4749;DHT22;2388;53.582;9.962;2022-12-07T08:07:20;3.40;99.90
4749;DHT22;2388;53.582;9.962;2022-12-07T08:09:46;3.50;99.90
4749;DHT22;2388;53.582;9.962;2022-12-07T08:12:11;3.50;99.90
4749;DHT22;2388;53.582;9.962;2022-12-07T08:14:37;3.60;99.90
4749;DHT22;2388;53.582;9.962;2022-12-07T08:17:02;3.70;99.90
4749;DHT22;2388;53.582;9.962;2022-12-07T08:19:28;3.70;99.90
4749;DHT22;2388;53.582;9.962;2022-12-07T08:21:53;3.70;99.90
4749;DHT22;2388;53.582;9.962;2022-12-07T08:24:21;3.80;99.90
4749;DHT22;2388;53.582;9.962;2022-12-07T08:26:46;3.80;99.90
4749;DHT22;2388;53.582;9.962;2022-12-07T08:29:12;3.90;99.90
4749;DHT22;2388;53.582;9.962;2022-12-07T08:31:38;3.80;99.90
4749;DHT22;2388;53.582;9.962;2022-12-07T08:34:03;3.80;99.90
4749;DHT22;2388;53.582;9.962;2022-12-07T08:36:29;3.80;99.90
4749;DHT22;2388;53.582;9.962;2022-12-07T08:38:54;3.90;99.90
4749;DHT22;2388;53.582;9.962;2022-12-07T08:41:19;3.90;99.90
4749;DHT22;2388;53.582;9.962;2022-12-07T08:43:45;4.00;99.90
4749;DHT22;2388;53.582;9.962;2022-12-07T08:46:38;4.00;99.90
4749;DHT22;2388;53.582;9.962;2022-12-07T08:49:16;4.10;99.90
4749;DHT22;2388;53.582;9.962;2022-12-07T08:51:44;4.10;99.90
4749;DHT22;2388;53.582;9.962;2022-12-07T08:54:12;4.00;99.90
4749;DHT22;2388;53.582;9.962;2022-12-07T08:56:39;4.00;99.90
4749;DHT22;2388;53.582;9.962;2022-12-07T08:59:06;4.10;99.90
4749;DHT22;2388;53.582;9.962;2022-12-07T09:01:32;4.10;99.90
4749;DHT22;2388;53.582;9.962;2022-12-07T09:03:58;4.10;99.90
4749;DHT22;2388;53.582;9.962;2022-12-07T09:06:23;4.20;99.90
4749;DHT22;2388;53.582;9.962;2022-12-07T09:08:52;4.20;99.90
4749;DHT22;2388;53.582;9.962;2022-12-07T09:11:19;4.10;99.90
4749;DHT22;2388;53.582;9.962;2022-12-07T09:13:45;4.20;99.90
4749;DHT22;2388;53.582;9.962;2022-12-07T09:16:10;4.20;99.90
4749;DHT22;2388;53.582;9.962;2022-12-07T09:18:36;4.20;99.90
4749;DHT22;2388;53.582;9.962;2022-12-07T09:21:01;4.30;99.90
4749;DHT22;2388;53.582;9.962;2022-12-07T09:23:27;4.30;99.90
4749;DHT22;2388;53.582;9.962;2022-12-07T09:25:52;4.30;99.90
4749;DHT22;2388;53.582;9.962;2022-12-07T09:28:18;4.30;99.90
4749;DHT22;2388;53.582;9.962;2022-12-07T09:30:47;4.30;99.90
4749;DHT22;2388;53.582;9.962;2022-12-07T09:33:13;4.30;99.90
4749;DHT22;2388;53.582;9.962;2022-12-07T09:35:44;4.30;99.90
4749;DHT22;2388;53.582;9.962;2022-12-07T09:38:10;4.30;99.90
4749;DHT22;2388;53.582;9.962;2022-12-07T09:40:35;4.30;99.90
4749;DHT22;2388;53.582;9.962;2022-12-07T09:43:01;4.40;99.90
4749;DHT22;2388;53.582;9.962;2022-12-07T09:45:31;4.40;99.90
4749;DHT22;2388;53.582;9.962;2022-12-07T09:47:58;4.40;99.90
4749;DHT22;2388;53.582;9.962;2022-12-07T09:50:27;4.50;99.90
4749;DHT22;2388;53.582;9.962;2022-12-07T09:53:07;4.40;99.90
4749;DHT22;2388;53.582;9.962;2022-12-07T09:55:33;4.40;99.90
4749;DHT22;2388;53.582;9.962;2022-12-07T09:58:01;4.50;91.60
4749;DHT22;2388;53.582;9.962;2022-12-07T10:00:26;4.50;66.40
4749;DHT22;2388;53.582;9.962;2022-12-07T10:02:57;4.50;47.40
4749;DHT22;2388;53.582;9.962;2022-12-07T10:05:38;4.60;31.30
4749;DHT22;2388;53.582;9.962;2022-12-07T10:08:04;4.60;35.70
4749;DHT22;2388;53.582;9.962;2022-12-07T10:10:32;4.60;40.00
4749;DHT22;2388;53.582;9.962;2022-12-07T10:13:04;4.60;60.60
4749;DHT22;2388;53.582;9.962;2022-12-07T10:18:31;4.60;16.80
4749;DHT22;2388;53.582;9.962;2022-12-07T10:23:29;4.60;1.00
4749;DHT22;2388;53.582;9.962;2022-12-07T10:25:55;4.60;4.40
4749;DHT22;2388;53.582;9.962;2022-12-07T10:28:21;4.60;13.90
4749;DHT22;2388;53.582;9.962;2022-12-07T10:33:35;4.60;1.70
4749;DHT22;2388;53.582;9.962;2022-12-07T10:36:20;4.60;1.00
4749;DHT22;2388;53.582;9.962;2022-12-07T10:39:11;4.60;1.00
4749;DHT22;2388;53.582;9.962;2022-12-07T10:41:33;4.60;1.00
4749;DHT22;2388;53.582;9.962;2022-12-07T10:43:59;4.60;1.00
4749;DHT22;2388;53.582;9.962;2022-12-07T10:52:11;4.60;1.00
4749;DHT22;2388;53.582;9.962;2022-12-07T10:57:32;4.70;1.00
4749;DHT22;2388;53.582;9.962;2022-12-07T11:03:01;4.80;1.00
4749;DHT22;2388;53.582;9.962;2022-12-07T11:05:55;4.80;1.00
4749;DHT22;2388;53.582;9.962;2022-12-07T11:13:52;4.80;1.00
4749;DHT22;2388;53.582;9.962;2022-12-07T11:16:34;4.90;1.00
4749;DHT22;2388;53.582;9.962;2022-12-07T11:22:13;4.80;1.00
4749;DHT22;2388;53.582;9.962;2022-12-07T11:24:56;4.80;99.90
4749;DHT22;2388;53.582;9.962;2022-12-07T11:28:15;4.80;1.00
4749;DHT22;2388;53.582;9.962;2022-12-07T11:33:41;4.90;99.90
4749;DHT22;2388;53.582;9.962;2022-12-07T11:36:31;4.90;99.90
4749;DHT22;2388;53.582;9.962;2022-12-07T11:39:11;4.90;99.90
4749;DHT22;2388;53.582;9.962;2022-12-07T11:41:42;4.90;97.50
4749;DHT22;2388;53.582;9.962;2022-12-07T11:44:22;4.90;99.90
4749;DHT22;2388;53.582;9.962;2022-12-07T11:46:55;4.90;1.00
4749;DHT22;2388;53.582;9.962;2022-12-07T11:49:40;4.90;22.20
4749;DHT22;2388;53.582;9.962;2022-12-07T11:52:13;4.90;1.00
4749;DHT22;2388;53.582;9.962;2022-12-07T11:54:43;4.90;1.00
4749;DHT22;2388;53.582;9.962;2022-12-07T11:57:33;4.90;1.00
4749;DHT22;2388;53.582;9.962;2022-12-07T12:00:05;4.90;1.00
4749;DHT22;2388;53.582;9.962;2022-12-07T12:02:38;4.90;1.00
4749;DHT22;2388;53.582;9.962;2022-12-07T12:05:24;5.00;1.00
4749;DHT22;2388;53.582;9.962;2022-12-07T12:22:17;5.00;99.90
4749;DHT22;2388;53.582;9.962;2022-12-07T12:24:45;5.00;99.90
4749;DHT22;2388;53.582;9.962;2022-12-07T12:27:27;5.10;99.90
4749;DHT22;2388;53.582;9.962;2022-12-07T12:29:59;5.10;99.90
4749;DHT22;2388;53.582;9.962;2022-12-07T12:32:40;5.10;14.60
4749;DHT22;2388;53.582;9.962;2022-12-07T12:38:27;5.20;1.00
4749;DHT22;2388;53.582;9.962;2022-12-07T12:40:54;5.30;7.40
4749;DHT22;2388;53.582;9.962;2022-12-07T12:49:33;5.50;99.90
4749;DHT22;2388;53.582;9.962;2022-12-07T12:55:00;5.40;99.90
4749;DHT22;2388;53.582;9.962;2022-12-07T12:57:29;5.50;99.90
4749;DHT22;2388;53.582;9.962;2022-12-07T13:02:39;5.50;1.00
4749;DHT22;2388;53.582;9.962;2022-12-07T13:15:42;5.80;99.90
4749;DHT22;2388;53.582;9.962;2022-12-07T13:24:00;5.80;1.00
4749;DHT22;2388;53.582;9.962;2022-12-07T13:29:36;5.70;99.90
4749;DHT22;2388;53.582;9.962;2022-12-07T13:32:01;5.60;33.60
4749;DHT22;2388;53.582;9.962;2022-12-07T13:34:39;5.60;99.90
4749;DHT22;2388;53.582;9.962;2022-12-07T13:40:00;5.50;1.00
4749;DHT22;2388;53.582;9.962;2022-12-07T13:42:32;5.50;1.00
4749;DHT22;2388;53.582;9.962;2022-12-07T13:45:01;5.50;1.00
4749;DHT22;2388;53.582;9.962;2022-12-07T13:49:55;5.50;45.90
4749;DHT22;2388;53.582;9.962;2022-12-07T13:52:28;5.50;99.90
4749;DHT22;2388;53.582;9.962;2022-12-07T13:55:11;5.50;22.00
4749;DHT22;2388;53.582;9.962;2022-12-07T13:57:39;5.50;1.00
4749;DHT22;2388;53.582;9.962;2022-12-07T14:00:15;5.40;1.00
4749;DHT22;2388;53.582;9.962;2022-12-07T14:02:56;5.40;1.00
4749;DHT22;2388;53.582;9.962;2022-12-07T14:05:32;5.40;1.00
4749;DHT22;2388;53.582;9.962;2022-12-07T14:08:01;5.40;1.00
4749;DHT22;2388;53.582;9.962;2022-12-07T14:10:40;5.30;1.00
4749;DHT22;2388;53.582;9.962;2022-12-07T14:15:53;5.30;1.00
4749;DHT22;2388;53.582;9.962;2022-12-07T14:18:27;5.30;1.00
4749;DHT22;2388;53.582;9.962;2022-12-07T14:23:36;5.20;1.00
4749;DHT22;2388;53.582;9.962;2022-12-07T14:26:09;5.20;99.90
4749;DHT22;2388;53.582;9.962;2022-12-07T14:28:37;5.20;99.90
4749;DHT22;2388;53.582;9.962;2022-12-07T14:31:03;5.20;99.90
4749;DHT22;2388;53.582;9.962;2022-12-07T14:33:29;5.20;99.90
4749;DHT22;2388;53.582;9.962;2022-12-07T14:35:55;5.20;99.90
4749;DHT22;2388;53.582;9.962;2022-12-07T14:38:23;5.10;99.90
4749;DHT22;2388;53.582;9.962;2022-12-07T14:40:50;5.10;99.90
4749;DHT22;2388;53.582;9.962;2022-12-07T14:43:17;5.10;1.00
4749;DHT22;2388;53.582;9.962;2022-12-07T14:45:43;5.10;1.00
4749;DHT22;2388;53.582;9.962;2022-12-07T14:48:13;5.10;1.00
4749;DHT22;2388;53.582;9.962;2022-12-07T14:50:49;5.00;1.00
4749;DHT22;2388;53.582;9.962;2022-12-07T14:53:17;5.00;1.00
4749;DHT22;2388;53.582;9.962;2022-12-07T14:55:44;4.90;1.00
4749;DHT22;2388;53.582;9.962;2022-12-07T14:58:15;4.90;1.00
4749;DHT22;2388;53.582;9.962;2022-12-07T15:00:40;4.90;1.00
4749;DHT22;2388;53.582;9.962;2022-12-07T15:03:06;4.80;1.00
4749;DHT22;2388;53.582;9.962;2022-12-07T15:05:32;4.80;36.70
4749;DHT22;2388;53.582;9.962;2022-12-07T15:07:58;4.90;1.00
4749;DHT22;2388;53.582;9.962;2022-12-07T15:10:28;4.90;1.00
4749;DHT22;2388;53.582;9.962;2022-12-07T15:12:57;4.80;1.00
4749;DHT22;2388;53.582;9.962;2022-12-07T15:15:47;4.80;1.00
4749;DHT22;2388;53.582;9.962;2022-12-07T15:18:12;4.80;1.00
4749;DHT22;2388;53.582;9.962;2022-12-07T15:20:38;4.80;1.00
4749;DHT22;2388;53.582;9.962;2022-12-07T15:23:04;4.80;1.00
4749;DHT22;2388;53.582;9.962;2022-12-07T15:25:29;4.80;1.00
4749;DHT22;2388;53.582;9.962;2022-12-07T15:27:55;4.70;1.00
4749;DHT22;2388;53.582;9.962;2022-12-07T15:30:20;4.70;1.00
4749;DHT22;2388;53.582;9.962;2022-12-07T15:32:50;4.60;1.00
4749;DHT22;2388;53.582;9.962;2022-12-07T15:35:15;4.60;1.00
4749;DHT22;2388;53.582;9.962;2022-12-07T15:37:41;4.60;1.00
4749;DHT22;2388;53.582;9.962;2022-12-07T15:40:07;4.50;99.90
4749;DHT22;2388;53.582;9.962;2022-12-07T15:42:33;4.50;99.90
4749;DHT22;2388;53.582;9.962;2022-12-07T15:44:58;4.50;99.90
4749;DHT22;2388;53.582;9.962;2022-12-07T15:47:31;4.50;99.90
4749;DHT22;2388;53.582;9.962;2022-12-07T15:49:56;4.40;99.90
4749;DHT22;2388;53.582;9.962;2022-12-07T15:52:22;4.40;99.90
4749;DHT22;2388;53.582;9.962;2022-12-07T15:54:48;4.40;99.90
4749;DHT22;2388;53.582;9.962;2022-12-07T15:57:13;4.40;99.90
4749;DHT22;2388;53.582;9.962;2022-12-07T15:59:39;4.30;99.90
4749;DHT22;2388;53.582;9.962;2022-12-07T16:02:05;4.30;98.30
4749;DHT22;2388;53.582;9.962;2022-12-07T16:04:30;4.40;99.90
4749;DHT22;2388;53.582;9.962;2022-12-07T16:06:56;4.30;99.90
4749;DHT22;2388;53.582;9.962;2022-12-07T16:09:22;4.30;99.90
4749;DHT22;2388;53.582;9.962;2022-12-07T16:11:47;4.20;94.40
4749;DHT22;2388;53.582;9.962;2022-12-07T16:14:15;4.20;99.90
4749;DHT22;2388;53.582;9.962;2022-12-07T16:16:41;4.20;99.90
4749;DHT22;2388;53.582;9.962;2022-12-07T16:19:07;4.30;99.90
4749;DHT22;2388;53.582;9.962;2022-12-07T16:21:34;4.30;99.90
4749;DHT22;2388;53.582;9.962;2022-12-07T16:24:01;4.30;99.90
4749;DHT22;2388;53.582;9.962;2022-12-07T16:26:26;4.20;99.90
4749;DHT22;2388;53.582;9.962;2022-12-07T16:28:52;4.30;99.90
4749;DHT22;2388;53.582;9.962;2022-12-07T16:31:21;4.30;1.00
4749;DHT22;2388;53.582;9.962;2022-12-07T16:33:47;4.30;99.90
4749;DHT22;2388;53.582;9.962;2022-12-07T16:36:13;4.30;99.90
4749;DHT22;2388;53.582;9.962;2022-12-07T16:38:41;4.30;1.00
4749;DHT22;2388;53.582;9.962;2022-12-07T16:41:07;4.30;99.90
4749;DHT22;2388;53.582;9.962;2022-12-07T16:43:33;4.20;99.90
4749;DHT22;2388;53.582;9.962;2022-12-07T16:45:59;4.20;99.90
4749;DHT22;2388;53.582;9.962;2022-12-07T16:48:25;4.20;99.90
4749;DHT22;2388;53.582;9.962;2022-12-07T16:50:51;4.20;99.90
4749;DHT22;2388;53.582;9.962;2022-12-07T16:53:19;4.20;99.90
4749;DHT22;2388;53.582;9.962;2022-12-07T16:55:45;4.20;99.90
4749;DHT22;2388;53.582;9.962;2022-12-07T16:58:12;4.20;1.00
4749;DHT22;2388;53.582;9.962;2022-12-07T17:00:39;4.10;99.90
4749;DHT22;2388;53.582;9.962;2022-12-07T17:03:05;4.10;99.90
4749;DHT22;2388;53.582;9.962;2022-12-07T17:05:31;4.20;99.90
4749;DHT22;2388;53.582;9.962;2022-12-07T17:07:57;4.10;99.90
4749;DHT22;2388;53.582;9.962;2022-12-07T17:10:23;4.10;99.90
4749;DHT22;2388;53.582;9.962;2022-12-07T17:12:49;4.10;99.90
4749;DHT22;2388;53.582;9.962;2022-12-07T17:15:15;4.10;99.90
4749;DHT22;2388;53.582;9.962;2022-12-07T17:17:44;4.10;99.90
4749;DHT22;2388;53.582;9.962;2022-12-07T17:20:10;4.00;28.30
4749;DHT22;2388;53.582;9.962;2022-12-07T17:22:35;4.00;10.30
4749;DHT22;2388;53.582;9.962;2022-12-07T17:25:02;4.00;86.50
4749;DHT22;2388;53.582;9.962;2022-12-07T17:27:27;4.00;60.30
4749;DHT22;2388;53.582;9.962;2022-12-07T17:29:53;4.00;1.00
4749;DHT22;2388;53.582;9.962;2022-12-07T17:32:18;4.00;27.70
4749;DHT22;2388;53.582;9.962;2022-12-07T17:34:44;3.90;99.90
4749;DHT22;2388;53.582;9.962;2022-12-07T17:37:09;4.00;99.90
4749;DHT22;2388;53.582;9.962;2022-12-07T17:39:35;4.00;99.90
4749;DHT22;2388;53.582;9.962;2022-12-07T17:42:00;4.00;99.90
4749;DHT22;2388;53.582;9.962;2022-12-07T17:44:44;3.90;99.90
4749;DHT22;2388;53.582;9.962;2022-12-07T17:47:09;3.90;99.90
4749;DHT22;2388;53.582;9.962;2022-12-07T17:49:35;3.90;84.00
4749;DHT22;2388;53.582;9.962;2022-12-07T17:52:01;3.90;99.90
4749;DHT22;2388;53.582;9.962;2022-12-07T17:54:45;3.90;99.90
4749;DHT22;2388;53.582;9.962;2022-12-07T17:57:11;3.90;90.20
4749;DHT22;2388;53.582;9.962;2022-12-07T17:59:36;3.90;99.90
4749;DHT22;2388;53.582;9.962;2022-12-07T18:02:02;3.90;99.90
4749;DHT22;2388;53.582;9.962;2022-12-07T18:04:28;3.90;99.90
4749;DHT22;2388;53.582;9.962;2022-12-07T18:06:53;3.90;72.60
4749;DHT22;2388;53.582;9.962;2022-12-07T18:09:19;3.90;19.40
4749;DHT22;2388;53.582;9.962;2022-12-07T18:11:46;3.80;8.20
4749;DHT22;2388;53.582;9.962;2022-12-07T18:14:11;3.80;17.70
4749;DHT22;2388;53.582;9.962;2022-12-07T18:16:37;3.80;2.90
4749;DHT22;2388;53.582;9.962;2022-12-07T18:19:04;3.80;1.00
4749;DHT22;2388;53.582;9.962;2022-12-07T18:21:31;3.80;1.00
4749;DHT22;2388;53.582;9.962;2022-12-07T18:23:58;3.80;9.20
4749;DHT22;2388;53.582;9.962;2022-12-07T18:26:27;3.70;1.00
4749;DHT22;2388;53.582;9.962;2022-12-07T18:28:52;3.70;99.90
4749;DHT22;2388;53.582;9.962;2022-12-07T18:31:19;3.80;99.90
4749;DHT22;2388;53.582;9.962;2022-12-07T18:33:45;3.80;99.90